sensor_id;sensor_type;location;lat;lon;timestamp;temperature;humidity
4103;DHT22;2065;49.790;9.620;2022-12-18T00:01:58;-3.20;44.10
4103;DHT22;2065;49.790;9.620;2022-12-18T00:04:27;-3.40;44.50
4103;DHT22;2065;49.790;9.620;2022-12-18T00:06:54;-3.40;44.80
4103;DHT22;2065;49.790;9.620;2022-12-18T00:09:21;-3.30;44.50
4103;DHT22;2065;49.790;9.620;2022-12-18T00:11:48;-3.20;44.40
4103;DHT22;2065;49.790;9.620;2022-12-18T00:14:16;-3.10;44.60
4103;DHT22;2065;49.790;9.620;2022-12-18T00:16:44;-3.10;44.60
4103;DHT22;2065;49.790;9.620;2022-12-18T00:19:13;-3.00;44.40
4103;DHT22;2065;49.790;9.620;2022-12-18T00:21:41;-3.10;44.30
4103;DHT22;2065;49.790;9.620;2022-12-18T00:24:09;-3.20;44.50
4103;DHT22;2065;49.790;9.620;2022-12-18T00:26:37;-3.50;45.00
4103;DHT22;2065;49.790;9.620;2022-12-18T00:29:06;-3.60;46.00
4103;DHT22;2065;49.790;9.620;2022-12-18T00:31:35;-3.60;46.20
4103;DHT22;2065;49.790;9.620;2022-12-18T00:34:03;-3.50;45.80
4103;DHT22;2065;49.790;9.620;2022-12-18T00:36:32;-3.40;45.00
4103;DHT22;2065;49.790;9.620;2022-12-18T00:39:03;-3.50;44.80
4103;DHT22;2065;49.790;9.620;2022-12-18T00:41:31;-3.50;44.60
4103;DHT22;2065;49.790;9.620;2022-12-18T00:44:17;-3.50;44.60
4103;DHT22;2065;49.790;9.620;2022-12-18T00:46:47;-3.50;44.70
4103;DHT22;2065;49.790;9.620;2022-12-18T00:49:15;-3.40;44.90
4103;DHT22;2065;49.790;9.620;2022-12-18T00:51:42;-3.50;44.90
4103;DHT22;2065;49.790;9.620;2022-12-18T00:54:09;-3.50;44.90
4103;DHT22;2065;49.790;9.620;2022-12-18T00:56:37;-3.50;44.90
4103;DHT22;2065;49.790;9.620;2022-12-18T00:59:04;-3.50;44.60
4103;DHT22;2065;49.790;9.620;2022-12-18T01:01:32;-3.60;44.20
4103;DHT22;2065;49.790;9.620;2022-12-18T01:04:01;-3.60;44.20
4103;DHT22;2065;49.790;9.620;2022-12-18T01:06:29;-3.50;44.30
4103;DHT22;2065;49.790;9.620;2022-12-18T01:08:57;-3.40;44.10
4103;DHT22;2065;49.790;9.620;2022-12-18T01:11:24;-3.40;44.30
4103;DHT22;2065;49.790;9.620;2022-12-18T01:13:53;-3.40;44.30
4103;DHT22;2065;49.790;9.620;2022-12-18T01:16:22;-3.40;44.90
4103;DHT22;2065;49.790;9.620;2022-12-18T01:18:52;-3.40;45.30
4103;DHT22;2065;49.790;9.620;2022-12-18T01:21:22;-3.70;45.20
4103;DHT22;2065;49.790;9.620;2022-12-18T01:23:52;-3.60;46.10
4103;DHT22;2065;49.790;9.620;2022-12-18T01:26:19;-3.60;45.30
4103;DHT22;2065;49.790;9.620;2022-12-18T01:28:46;-3.70;45.20
4103;DHT22;2065;49.790;9.620;2022-12-18T01:31:16;-3.90;45.30
4103;DHT22;2065;49.790;9.620;2022-12-18T01:33:49;-3.90;45.80
4103;DHT22;2065;49.790;9.620;2022-12-18T01:36:18;-3.80;46.00
4103;DHT22;2065;49.790;9.620;2022-12-18T01:38:47;-3.70;45.60
4103;DHT22;2065;49.790;9.620;2022-12-18T01:41:16;-3.60;45.00
4103;DHT22;2065;49.790;9.620;2022-12-18T01:43:46;-3.60;44.70
4103;DHT22;2065;49.790;9.620;2022-12-18T01:46:13;-3.60;44.50
4103;DHT22;2065;49.790;9.620;2022-12-18T01:48:41;-3.60;44.40
4103;DHT22;2065;49.790;9.620;2022-12-18T01:51:10;-3.70;44.50
4103;DHT22;2065;49.790;9.620;2022-12-18T01:53:39;-3.70;44.30
4103;DHT22;2065;49.790;9.620;2022-12-18T01:56:11;-3.70;44.20
4103;DHT22;2065;49.790;9.620;2022-12-18T01:58:43;-3.70;44.10
4103;DHT22;2065;49.790;9.620;2022-12-18T02:01:13;-3.70;43.90
4103;DHT22;2065;49.790;9.620;2022-12-18T02:03:41;-3.60;43.90
4103;DHT22;2065;49.790;9.620;2022-12-18T02:06:14;-3.60;44.00
4103;DHT22;2065;49.790;9.620;2022-12-18T02:08:53;-3.60;43.80
4103;DHT22;2065;49.790;9.620;2022-12-18T02:11:33;-3.70;44.00
4103;DHT22;2065;49.790;9.620;2022-12-18T02:14:12;-3.70;44.40
4103;DHT22;2065;49.790;9.620;2022-12-18T02:16:46;-3.70;44.50
4103;DHT22;2065;49.790;9.620;2022-12-18T02:19:28;-3.70;44.20
4103;DHT22;2065;49.790;9.620;2022-12-18T02:22:10;-3.80;44.00
4103;DHT22;2065;49.790;9.620;2022-12-18T02:24:54;-3.90;44.60
4103;DHT22;2065;49.790;9.620;2022-12-18T02:27:27;-3.90;45.00
4103;DHT22;2065;49.790;9.620;2022-12-18T02:29:55;-3.80;44.60
4103;DHT22;2065;49.790;9.620;2022-12-18T02:32:26;-3.80;45.00
4103;DHT22;2065;49.790;9.620;2022-12-18T02:34:56;-3.80;44.10
4103;DHT22;2065;49.790;9.620;2022-12-18T02:37:26;-3.80;43.90
4103;DHT22;2065;49.790;9.620;2022-12-18T02:39:56;-3.80;43.70
4103;DHT22;2065;49.790;9.620;2022-12-18T02:42:28;-3.80;43.50
4103;DHT22;2065;49.790;9.620;2022-12-18T02:44:55;-3.90;43.60
4103;DHT22;2065;49.790;9.620;2022-12-18T02:47:27;-3.80;43.60
4103;DHT22;2065;49.790;9.620;2022-12-18T02:50:08;-3.90;43.70
4103;DHT22;2065;49.790;9.620;2022-12-18T02:52:44;-3.90;44.50
4103;DHT22;2065;49.790;9.620;2022-12-18T02:55:27;-3.90;44.20
4103;DHT22;2065;49.790;9.620;2022-12-18T02:58:05;-3.90;43.60
4103;DHT22;2065;49.790;9.620;2022-12-18T03:00:41;-3.90;43.70
4103;DHT22;2065;49.790;9.620;2022-12-18T03:03:14;-4.00;44.00
4103;DHT22;2065;49.790;9.620;2022-12-18T03:05:47;-4.00;44.60
4103;DHT22;2065;49.790;9.620;2022-12-18T03:08:19;-3.90;44.40
4103;DHT22;2065;49.790;9.620;2022-12-18T03:10:54;-3.90;43.70
4103;DHT22;2065;49.790;9.620;2022-12-18T03:13:27;-3.90;43.40
4103;DHT22;2065;49.790;9.620;2022-12-18T03:15:56;-4.00;43.40
4103;DHT22;2065;49.790;9.620;2022-12-18T03:18:30;-4.20;44.00
4103;DHT22;2065;49.790;9.620;2022-12-18T03:21:00;-4.30;44.00
4103;DHT22;2065;49.790;9.620;2022-12-18T03:23:33;-4.30;44.20
4103;DHT22;2065;49.790;9.620;2022-12-18T03:26:05;-4.20;45.10
4103;DHT22;2065;49.790;9.620;2022-12-18T03:28:41;-4.10;44.70
4103;DHT22;2065;49.790;9.620;2022-12-18T03:31:11;-4.30;45.00
4103;DHT22;2065;49.790;9.620;2022-12-18T03:33:42;-4.80;45.60
4103;DHT22;2065;49.790;9.620;2022-12-18T03:36:13;-4.80;46.00
4103;DHT22;2065;49.790;9.620;2022-12-18T03:38:41;-4.60;45.80
4103;DHT22;2065;49.790;9.620;2022-12-18T03:41:17;-4.50;45.00
4103;DHT22;2065;49.790;9.620;2022-12-18T03:44:14;-4.60;44.80
4103;DHT22;2065;49.790;9.620;2022-12-18T03:46:52;-4.60;44.30
4103;DHT22;2065;49.790;9.620;2022-12-18T03:49:26;-4.50;44.20
4103;DHT22;2065;49.790;9.620;2022-12-18T03:52:03;-4.30;44.10
4103;DHT22;2065;49.790;9.620;2022-12-18T03:54:33;-4.20;43.90
4103;DHT22;2065;49.790;9.620;2022-12-18T03:57:13;-4.20;43.60
4103;DHT22;2065;49.790;9.620;2022-12-18T03:59:43;-4.30;44.30
4103;DHT22;2065;49.790;9.620;2022-12-18T04:02:14;-4.70;45.00
4103;DHT22;2065;49.790;9.620;2022-12-18T04:04:43;-4.80;45.00
4103;DHT22;2065;49.790;9.620;2022-12-18T04:07:12;-4.80;45.10
4103;DHT22;2065;49.790;9.620;2022-12-18T04:09:41;-4.70;45.30
4103;DHT22;2065;49.790;9.620;2022-12-18T04:12:11;-4.50;45.20
4103;DHT22;2065;49.790;9.620;2022-12-18T04:14:38;-4.40;44.40
4103;DHT22;2065;49.790;9.620;2022-12-18T04:17:09;-4.40;44.00
4103;DHT22;2065;49.790;9.620;2022-12-18T04:19:36;-4.40;43.70
4103;DHT22;2065;49.790;9.620;2022-12-18T04:22:03;-4.30;43.90
4103;DHT22;2065;49.790;9.620;2022-12-18T04:24:36;-4.30;43.60
4103;DHT22;2065;49.790;9.620;2022-12-18T04:27:10;-4.30;43.70
4103;DHT22;2065;49.790;9.620;2022-12-18T04:29:42;-4.20;43.70
4103;DHT22;2065;49.790;9.620;2022-12-18T04:32:11;-4.20;43.40
4103;DHT22;2065;49.790;9.620;2022-12-18T04:34:39;-4.20;43.00
4103;DHT22;2065;49.790;9.620;2022-12-18T04:37:06;-4.20;43.00
4103;DHT22;2065;49.790;9.620;2022-12-18T04:39:33;-4.20;43.20
4103;DHT22;2065;49.790;9.620;2022-12-18T04:42:06;-4.20;43.10
4103;DHT22;2065;49.790;9.620;2022-12-18T04:44:33;-4.20;42.70
4103;DHT22;2065;49.790;9.620;2022-12-18T04:47:00;-4.30;42.60
4103;DHT22;2065;49.790;9.620;2022-12-18T04:49:29;-4.30;42.80
4103;DHT22;2065;49.790;9.620;2022-12-18T04:51:56;-4.40;42.80
4103;DHT22;2065;49.790;9.620;2022-12-18T04:54:23;-4.40;43.10
4103;DHT22;2065;49.790;9.620;2022-12-18T04:56:51;-4.70;44.40
4103;DHT22;2065;49.790;9.620;2022-12-18T04:59:18;-4.60;44.70
4103;DHT22;2065;49.790;9.620;2022-12-18T05:01:45;-4.50;43.80
4103;DHT22;2065;49.790;9.620;2022-12-18T05:04:12;-4.60;43.70
4103;DHT22;2065;49.790;9.620;2022-12-18T05:06:41;-4.60;43.80
4103;DHT22;2065;49.790;9.620;2022-12-18T05:09:08;-4.60;44.00
4103;DHT22;2065;49.790;9.620;2022-12-18T05:11:35;-4.60;44.00
4103;DHT22;2065;49.790;9.620;2022-12-18T05:14:02;-4.60;43.80
4103;DHT22;2065;49.790;9.620;2022-12-18T05:16:29;-4.50;43.40
4103;DHT22;2065;49.790;9.620;2022-12-18T05:18:57;-4.50;43.30
4103;DHT22;2065;49.790;9.620;2022-12-18T05:21:24;-4.40;43.20
4103;DHT22;2065;49.790;9.620;2022-12-18T05:23:52;-4.50;43.10
4103;DHT22;2065;49.790;9.620;2022-12-18T05:26:19;-4.50;43.50
4103;DHT22;2065;49.790;9.620;2022-12-18T05:28:46;-4.40;43.70
4103;DHT22;2065;49.790;9.620;2022-12-18T05:31:13;-4.40;43.70
4103;DHT22;2065;49.790;9.620;2022-12-18T05:33:40;-4.40;43.30
4103;DHT22;2065;49.790;9.620;2022-12-18T05:36:08;-4.50;42.80
4103;DHT22;2065;49.790;9.620;2022-12-18T05:38:38;-4.60;43.00
4103;DHT22;2065;49.790;9.620;2022-12-18T05:41:07;-4.50;43.30
4103;DHT22;2065;49.790;9.620;2022-12-18T05:43:36;-4.50;43.20
4103;DHT22;2065;49.790;9.620;2022-12-18T05:46:04;-4.50;42.90
4103;DHT22;2065;49.790;9.620;2022-12-18T05:48:32;-4.50;42.70
4103;DHT22;2065;49.790;9.620;2022-12-18T05:51:04;-4.60;42.80
4103;DHT22;2065;49.790;9.620;2022-12-18T05:53:31;-4.70;43.30
4103;DHT22;2065;49.790;9.620;2022-12-18T05:56:00;-4.80;44.00
4103;DHT22;2065;49.790;9.620;2022-12-18T05:58:28;-4.70;44.10
4103;DHT22;2065;49.790;9.620;2022-12-18T06:00:56;-4.70;43.70
4103;DHT22;2065;49.790;9.620;2022-12-18T06:03:23;-4.70;43.50
4103;DHT22;2065;49.790;9.620;2022-12-18T06:05:50;-4.60;43.40
4103;DHT22;2065;49.790;9.620;2022-12-18T06:08:17;-4.60;43.20
4103;DHT22;2065;49.790;9.620;2022-12-18T06:10:50;-4.70;43.30
4103;DHT22;2065;49.790;9.620;2022-12-18T06:13:18;-4.70;43.30
4103;DHT22;2065;49.790;9.620;2022-12-18T06:15:46;-4.70;43.10
4103;DHT22;2065;49.790;9.620;2022-12-18T06:18:13;-4.80;42.90
4103;DHT22;2065;49.790;9.620;2022-12-18T06:20:40;-4.80;43.40
4103;DHT22;2065;49.790;9.620;2022-12-18T06:23:07;-4.90;44.00
4103;DHT22;2065;49.790;9.620;2022-12-18T06:25:37;-4.90;44.00
4103;DHT22;2065;49.790;9.620;2022-12-18T06:28:05;-4.80;44.10
4103;DHT22;2065;49.790;9.620;2022-12-18T06:30:32;-4.70;43.80
4103;DHT22;2065;49.790;9.620;2022-12-18T06:33:00;-4.70;43.20
4103;DHT22;2065;49.790;9.620;2022-12-18T06:35:27;-4.70;43.10
4103;DHT22;2065;49.790;9.620;2022-12-18T06:37:54;-4.70;43.00
4103;DHT22;2065;49.790;9.620;2022-12-18T06:40:21;-4.70;43.10
4103;DHT22;2065;49.790;9.620;2022-12-18T06:42:48;-4.80;43.40
4103;DHT22;2065;49.790;9.620;2022-12-18T06:45:15;-4.80;43.50
4103;DHT22;2065;49.790;9.620;2022-12-18T06:47:42;-4.70;43.60
4103;DHT22;2065;49.790;9.620;2022-12-18T06:50:11;-4.70;43.40
4103;DHT22;2065;49.790;9.620;2022-12-18T06:52:38;-4.70;43.40
4103;DHT22;2065;49.790;9.620;2022-12-18T06:55:07;-4.60;43.70
4103;DHT22;2065;49.790;9.620;2022-12-18T06:57:34;-4.70;44.10
4103;DHT22;2065;49.790;9.620;2022-12-18T07:00:01;-4.70;44.70
4103;DHT22;2065;49.790;9.620;2022-12-18T07:02:28;-4.70;45.40
4103;DHT22;2065;49.790;9.620;2022-12-18T07:04:55;-4.80;47.00
4103;DHT22;2065;49.790;9.620;2022-12-18T07:07:24;-4.90;47.60
4103;DHT22;2065;49.790;9.620;2022-12-18T07:09:51;-5.10;48.40
4103;DHT22;2065;49.790;9.620;2022-12-18T07:12:18;-5.10;48.60
4103;DHT22;2065;49.790;9.620;2022-12-18T07:14:45;-5.20;49.30
4103;DHT22;2065;49.790;9.620;2022-12-18T07:17:12;-5.40;51.40
4103;DHT22;2065;49.790;9.620;2022-12-18T07:19:39;-5.40;51.90
4103;DHT22;2065;49.790;9.620;2022-12-18T07:22:06;-5.50;51.70
4103;DHT22;2065;49.790;9.620;2022-12-18T07:24:35;-5.40;51.70
4103;DHT22;2065;49.790;9.620;2022-12-18T07:27:02;-5.20;51.70
4103;DHT22;2065;49.790;9.620;2022-12-18T07:29:29;-5.20;51.40
4103;DHT22;2065;49.790;9.620;2022-12-18T07:31:56;-5.00;51.20
4103;DHT22;2065;49.790;9.620;2022-12-18T07:34:23;-4.80;50.60
4103;DHT22;2065;49.790;9.620;2022-12-18T07:36:50;-4.40;50.60
4103;DHT22;2065;49.790;9.620;2022-12-18T07:39:17;-4.40;49.60
4103;DHT22;2065;49.790;9.620;2022-12-18T07:41:45;-4.30;49.60
4103;DHT22;2065;49.790;9.620;2022-12-18T07:44:32;-4.20;50.00
4103;DHT22;2065;49.790;9.620;2022-12-18T07:46:59;-4.20;50.10
4103;DHT22;2065;49.790;9.620;2022-12-18T07:49:27;-4.40;50.60
4103;DHT22;2065;49.790;9.620;2022-12-18T07:51:54;-4.30;51.10
4103;DHT22;2065;49.790;9.620;2022-12-18T07:54:21;-4.00;50.40
4103;DHT22;2065;49.790;9.620;2022-12-18T07:56:50;-3.80;50.20
4103;DHT22;2065;49.790;9.620;2022-12-18T07:59:17;-3.80;50.50
4103;DHT22;2065;49.790;9.620;2022-12-18T08:01:44;-3.70;50.60
4103;DHT22;2065;49.790;9.620;2022-12-18T08:04:11;-3.50;50.20
4103;DHT22;2065;49.790;9.620;2022-12-18T08:06:38;-3.60;50.60
4103;DHT22;2065;49.790;9.620;2022-12-18T08:09:05;-3.60;50.90
4103;DHT22;2065;49.790;9.620;2022-12-18T08:11:33;-3.60;50.70
4103;DHT22;2065;49.790;9.620;2022-12-18T08:14:01;-3.60;51.10
4103;DHT22;2065;49.790;9.620;2022-12-18T08:16:28;-3.50;51.30
4103;DHT22;2065;49.790;9.620;2022-12-18T08:18:56;-3.60;52.00
4103;DHT22;2065;49.790;9.620;2022-12-18T08:21:25;-3.60;52.30
4103;DHT22;2065;49.790;9.620;2022-12-18T08:23:53;-3.80;52.80
4103;DHT22;2065;49.790;9.620;2022-12-18T08:26:21;-3.60;53.10
4103;DHT22;2065;49.790;9.620;2022-12-18T08:28:50;-3.50;53.30
4103;DHT22;2065;49.790;9.620;2022-12-18T08:31:19;-3.40;53.10
4103;DHT22;2065;49.790;9.620;2022-12-18T08:33:48;-3.30;53.30
4103;DHT22;2065;49.790;9.620;2022-12-18T08:36:16;-3.20;53.50
4103;DHT22;2065;49.790;9.620;2022-12-18T08:38:43;-3.20;53.50
4103;DHT22;2065;49.790;9.620;2022-12-18T08:41:11;-3.00;53.70
4103;DHT22;2065;49.790;9.620;2022-12-18T08:43:38;-3.00;53.10
4103;DHT22;2065;49.790;9.620;2022-12-18T08:46:26;-2.80;53.30
4103;DHT22;2065;49.790;9.620;2022-12-18T08:48:54;-2.70;53.00
4103;DHT22;2065;49.790;9.620;2022-12-18T08:51:21;-2.60;52.90
4103;DHT22;2065;49.790;9.620;2022-12-18T08:53:49;-2.80;53.40
4103;DHT22;2065;49.790;9.620;2022-12-18T08:56:16;-2.80;53.80
4103;DHT22;2065;49.790;9.620;2022-12-18T08:58:43;-2.60;53.60
4103;DHT22;2065;49.790;9.620;2022-12-18T09:01:11;-2.50;53.50
4103;DHT22;2065;49.790;9.620;2022-12-18T09:03:40;-2.60;53.40
4103;DHT22;2065;49.790;9.620;2022-12-18T09:06:07;-2.60;54.30
4103;DHT22;2065;49.790;9.620;2022-12-18T09:08:35;-2.30;53.90
4103;DHT22;2065;49.790;9.620;2022-12-18T09:11:03;-2.50;54.10
4103;DHT22;2065;49.790;9.620;2022-12-18T09:13:30;-2.60;54.40
4103;DHT22;2065;49.790;9.620;2022-12-18T09:15:57;-2.70;54.90
4103;DHT22;2065;49.790;9.620;2022-12-18T09:18:24;-2.50;54.80
4103;DHT22;2065;49.790;9.620;2022-12-18T09:20:52;-2.50;54.60
4103;DHT22;2065;49.790;9.620;2022-12-18T09:23:20;-2.50;55.00
4103;DHT22;2065;49.790;9.620;2022-12-18T09:25:47;-2.40;55.10
4103;DHT22;2065;49.790;9.620;2022-12-18T09:28:16;-2.70;55.90
4103;DHT22;2065;49.790;9.620;2022-12-18T09:30:45;-2.60;55.90
4103;DHT22;2065;49.790;9.620;2022-12-18T09:33:12;-2.80;56.30
4103;DHT22;2065;49.790;9.620;2022-12-18T09:35:40;-2.70;56.80
4103;DHT22;2065;49.790;9.620;2022-12-18T09:38:11;-2.50;56.50
4103;DHT22;2065;49.790;9.620;2022-12-18T09:40:43;-2.50;56.10
4103;DHT22;2065;49.790;9.620;2022-12-18T09:43:16;-2.50;57.00
4103;DHT22;2065;49.790;9.620;2022-12-18T09:45:46;-2.40;56.90
4103;DHT22;2065;49.790;9.620;2022-12-18T09:48:20;-2.20;56.70
4103;DHT22;2065;49.790;9.620;2022-12-18T09:50:50;-2.00;56.30
4103;DHT22;2065;49.790;9.620;2022-12-18T09:53:27;-1.60;55.70
4103;DHT22;2065;49.790;9.620;2022-12-18T09:55:57;-1.40;55.00
4103;DHT22;2065;49.790;9.620;2022-12-18T09:58:28;-1.40;54.40
4103;DHT22;2065;49.790;9.620;2022-12-18T10:00:56;-1.50;54.60
4103;DHT22;2065;49.790;9.620;2022-12-18T10:03:23;-1.70;55.00
4103;DHT22;2065;49.790;9.620;2022-12-18T10:05:58;-1.90;56.10
4103;DHT22;2065;49.790;9.620;2022-12-18T10:08:37;-1.70;56.30
4103;DHT22;2065;49.790;9.620;2022-12-18T10:11:28;-1.60;56.20
4103;DHT22;2065;49.790;9.620;2022-12-18T10:14:03;-1.50;55.80
4103;DHT22;2065;49.790;9.620;2022-12-18T10:16:38;-1.60;56.00
4103;DHT22;2065;49.790;9.620;2022-12-18T10:19:29;-1.50;56.40
4103;DHT22;2065;49.790;9.620;2022-12-18T10:22:08;-1.30;56.00
4103;DHT22;2065;49.790;9.620;2022-12-18T10:24:43;-1.20;55.80
4103;DHT22;2065;49.790;9.620;2022-12-18T10:27:15;-1.00;55.50
4103;DHT22;2065;49.790;9.620;2022-12-18T10:29:43;-0.90;55.10
4103;DHT22;2065;49.790;9.620;2022-12-18T10:32:14;-1.10;55.40
4103;DHT22;2065;49.790;9.620;2022-12-18T10:34:45;-1.00;55.60
4103;DHT22;2065;49.790;9.620;2022-12-18T10:37:16;-0.80;55.20
4103;DHT22;2065;49.790;9.620;2022-12-18T10:39:46;-0.90;55.10
4103;DHT22;2065;49.790;9.620;2022-12-18T10:42:31;-1.10;55.70
4103;DHT22;2065;49.790;9.620;2022-12-18T10:45:02;-0.80;55.70
4103;DHT22;2065;49.790;9.620;2022-12-18T10:47:30;-0.70;55.20
4103;DHT22;2065;49.790;9.620;2022-12-18T10:49:57;-0.70;55.40
4103;DHT22;2065;49.790;9.620;2022-12-18T10:52:25;-1.00;55.70
4103;DHT22;2065;49.790;9.620;2022-12-18T10:54:57;-1.00;56.30
4103;DHT22;2065;49.790;9.620;2022-12-18T10:57:35;-0.80;55.90
4103;DHT22;2065;49.790;9.620;2022-12-18T11:00:24;-0.70;55.90
4103;DHT22;2065;49.790;9.620;2022-12-18T11:02:51;-0.70;55.70
4103;DHT22;2065;49.790;9.620;2022-12-18T11:05:27;-0.60;55.80
4103;DHT22;2065;49.790;9.620;2022-12-18T11:07:56;-0.50;55.70
4103;DHT22;2065;49.790;9.620;2022-12-18T11:10:28;-0.30;55.70
4103;DHT22;2065;49.790;9.620;2022-12-18T11:12:56;-0.20;55.50
4103;DHT22;2065;49.790;9.620;2022-12-18T11:15:27;-0.20;55.60
4103;DHT22;2065;49.790;9.620;2022-12-18T11:17:56;-0.20;55.70
4103;DHT22;2065;49.790;9.620;2022-12-18T11:20:31;-0.10;55.30
4103;DHT22;2065;49.790;9.620;2022-12-18T11:22:59;-0.30;56.00
4103;DHT22;2065;49.790;9.620;2022-12-18T11:25:30;-0.10;55.70
4103;DHT22;2065;49.790;9.620;2022-12-18T11:27:59;0.00;55.40
4103;DHT22;2065;49.790;9.620;2022-12-18T11:30:28;0.00;55.40
4103;DHT22;2065;49.790;9.620;2022-12-18T11:32:59;0.00;55.70
4103;DHT22;2065;49.790;9.620;2022-12-18T11:35:37;-0.20;55.90
4103;DHT22;2065;49.790;9.620;2022-12-18T11:38:10;-0.10;56.30
4103;DHT22;2065;49.790;9.620;2022-12-18T11:40:44;0.20;55.80
4103;DHT22;2065;49.790;9.620;2022-12-18T11:43:15;0.30;55.60
4103;DHT22;2065;49.790;9.620;2022-12-18T11:45:50;0.60;55.60
4103;DHT22;2065;49.790;9.620;2022-12-18T11:48:22;0.80;54.90
4103;DHT22;2065;49.790;9.620;2022-12-18T11:50:52;0.80;54.80
4103;DHT22;2065;49.790;9.620;2022-12-18T11:53:20;0.80;54.50
4103;DHT22;2065;49.790;9.620;2022-12-18T11:56:01;0.50;55.70
4103;DHT22;2065;49.790;9.620;2022-12-18T11:58:42;0.50;55.90
4103;DHT22;2065;49.790;9.620;2022-12-18T12:01:18;0.70;55.70
4103;DHT22;2065;49.790;9.620;2022-12-18T12:04:09;0.60;55.60
4103;DHT22;2065;49.790;9.620;2022-12-18T12:06:48;0.70;56.00
4103;DHT22;2065;49.790;9.620;2022-12-18T12:09:20;0.60;55.70
4103;DHT22;2065;49.790;9.620;2022-12-18T12:12:10;0.50;56.10
4103;DHT22;2065;49.790;9.620;2022-12-18T12:14:46;0.40;56.10
4103;DHT22;2065;49.790;9.620;2022-12-18T12:17:24;0.60;56.10
4103;DHT22;2065;49.790;9.620;2022-12-18T12:20:00;0.70;56.20
4103;DHT22;2065;49.790;9.620;2022-12-18T12:22:35;0.90;55.80
4103;DHT22;2065;49.790;9.620;2022-12-18T12:25:18;0.60;55.70
4103;DHT22;2065;49.790;9.620;2022-12-18T12:27:54;0.50;56.40
4103;DHT22;2065;49.790;9.620;2022-12-18T12:30:30;0.90;56.40
4103;DHT22;2065;49.790;9.620;2022-12-18T12:33:12;1.10;55.70
4103;DHT22;2065;49.790;9.620;2022-12-18T12:35:47;1.10;55.60
4103;DHT22;2065;49.790;9.620;2022-12-18T12:38:21;1.10;55.30
4103;DHT22;2065;49.790;9.620;2022-12-18T12:40:52;0.80;56.30
4103;DHT22;2065;49.790;9.620;2022-12-18T12:43:40;0.80;56.60
4103;DHT22;2065;49.790;9.620;2022-12-18T12:46:08;0.80;56.40
4103;DHT22;2065;49.790;9.620;2022-12-18T12:48:41;0.70;56.70
4103;DHT22;2065;49.790;9.620;2022-12-18T12:51:17;0.80;56.80
4103;DHT22;2065;49.790;9.620;2022-12-18T12:53:45;0.80;57.10
4103;DHT22;2065;49.790;9.620;2022-12-18T12:56:14;0.80;56.70
4103;DHT22;2065;49.790;9.620;2022-12-18T12:58:49;0.80;56.80
4103;DHT22;2065;49.790;9.620;2022-12-18T13:01:28;0.70;56.70
4103;DHT22;2065;49.790;9.620;2022-12-18T13:04:03;0.90;57.00
4103;DHT22;2065;49.790;9.620;2022-12-18T13:06:40;0.90;56.70
4103;DHT22;2065;49.790;9.620;2022-12-18T13:09:09;1.00;56.90
4103;DHT22;2065;49.790;9.620;2022-12-18T13:11:38;1.00;56.40
4103;DHT22;2065;49.790;9.620;2022-12-18T13:14:27;1.20;56.30
4103;DHT22;2065;49.790;9.620;2022-12-18T13:17:14;1.20;56.20
4103;DHT22;2065;49.790;9.620;2022-12-18T13:19:41;1.40;55.90
4103;DHT22;2065;49.790;9.620;2022-12-18T13:22:21;1.30;55.80
4103;DHT22;2065;49.790;9.620;2022-12-18T13:24:48;1.30;55.70
4103;DHT22;2065;49.790;9.620;2022-12-18T13:30:42;1.60;55.60
4103;DHT22;2065;49.790;9.620;2022-12-18T13:36:28;1.70;55.10
4103;DHT22;2065;49.790;9.620;2022-12-18T13:39:32;1.70;55.30
4103;DHT22;2065;49.790;9.620;2022-12-18T13:42:31;1.70;55.30
4103;DHT22;2065;49.790;9.620;2022-12-18T13:45:39;1.80;55.10
4103;DHT22;2065;49.790;9.620;2022-12-18T13:48:17;1.70;54.80
4103;DHT22;2065;49.790;9.620;2022-12-18T13:50:49;1.50;55.60
4103;DHT22;2065;49.790;9.620;2022-12-18T13:53:21;1.30;56.30
4103;DHT22;2065;49.790;9.620;2022-12-18T13:55:50;1.50;56.40
4103;DHT22;2065;49.790;9.620;2022-12-18T13:58:17;1.50;56.10
4103;DHT22;2065;49.790;9.620;2022-12-18T14:00:44;1.80;55.90
4103;DHT22;2065;49.790;9.620;2022-12-18T14:03:19;1.90;55.60
4103;DHT22;2065;49.790;9.620;2022-12-18T14:05:53;1.90;54.90
4103;DHT22;2065;49.790;9.620;2022-12-18T14:08:21;2.00;55.20
4103;DHT22;2065;49.790;9.620;2022-12-18T14:10:51;1.90;55.00
4103;DHT22;2065;49.790;9.620;2022-12-18T14:13:24;2.10;54.90
4103;DHT22;2065;49.790;9.620;2022-12-18T14:15:54;2.00;54.60
4103;DHT22;2065;49.790;9.620;2022-12-18T14:18:24;1.70;55.20
4103;DHT22;2065;49.790;9.620;2022-12-18T14:20:54;1.60;55.90
4103;DHT22;2065;49.790;9.620;2022-12-18T14:23:31;1.80;55.60
4103;DHT22;2065;49.790;9.620;2022-12-18T14:26:00;2.00;55.30
4103;DHT22;2065;49.790;9.620;2022-12-18T14:28:27;2.10;55.00
4103;DHT22;2065;49.790;9.620;2022-12-18T14:30:55;1.90;54.60
4103;DHT22;2065;49.790;9.620;2022-12-18T14:33:25;1.90;55.00
4103;DHT22;2065;49.790;9.620;2022-12-18T14:35:55;2.10;54.80
4103;DHT22;2065;49.790;9.620;2022-12-18T14:38:26;2.10;54.80
4103;DHT22;2065;49.790;9.620;2022-12-18T14:40:58;2.30;54.70
4103;DHT22;2065;49.790;9.620;2022-12-18T14:43:27;2.30;54.50
4103;DHT22;2065;49.790;9.620;2022-12-18T14:45:55;2.50;54.30
4103;DHT22;2065;49.790;9.620;2022-12-18T14:48:33;2.40;53.60
4103;DHT22;2065;49.790;9.620;2022-12-18T14:51:03;2.50;53.80
4103;DHT22;2065;49.790;9.620;2022-12-18T14:53:35;2.20;53.60
4103;DHT22;2065;49.790;9.620;2022-12-18T14:56:10;2.20;54.10
4103;DHT22;2065;49.790;9.620;2022-12-18T14:58:45;2.20;54.10
4103;DHT22;2065;49.790;9.620;2022-12-18T15:01:22;2.30;54.00
4103;DHT22;2065;49.790;9.620;2022-12-18T15:03:51;2.40;53.90
4103;DHT22;2065;49.790;9.620;2022-12-18T15:06:27;2.50;53.60
4103;DHT22;2065;49.790;9.620;2022-12-18T15:08:54;2.50;53.10
4103;DHT22;2065;49.790;9.620;2022-12-18T15:11:33;2.60;53.20
4103;DHT22;2065;49.790;9.620;2022-12-18T15:14:13;2.60;53.10
4103;DHT22;2065;49.790;9.620;2022-12-18T15:16:51;2.60;52.90
4103;DHT22;2065;49.790;9.620;2022-12-18T15:19:20;2.70;52.80
4103;DHT22;2065;49.790;9.620;2022-12-18T15:21:48;2.60;52.80
4103;DHT22;2065;49.790;9.620;2022-12-18T15:24:18;2.60;52.90
4103;DHT22;2065;49.790;9.620;2022-12-18T15:26:45;2.60;52.80
4103;DHT22;2065;49.790;9.620;2022-12-18T15:29:18;2.60;52.60
4103;DHT22;2065;49.790;9.620;2022-12-18T15:32:04;2.50;52.50
4103;DHT22;2065;49.790;9.620;2022-12-18T15:34:33;2.50;52.50
4103;DHT22;2065;49.790;9.620;2022-12-18T15:37:00;2.40;52.40
4103;DHT22;2065;49.790;9.620;2022-12-18T15:39:27;2.40;52.40
4103;DHT22;2065;49.790;9.620;2022-12-18T15:41:55;2.40;52.40
4103;DHT22;2065;49.790;9.620;2022-12-18T15:44:39;2.30;52.20
4103;DHT22;2065;49.790;9.620;2022-12-18T15:47:10;2.00;52.40
4103;DHT22;2065;49.790;9.620;2022-12-18T15:49:40;1.80;52.80
4103;DHT22;2065;49.790;9.620;2022-12-18T15:52:12;1.80;53.10
4103;DHT22;2065;49.790;9.620;2022-12-18T15:54:51;1.90;53.20
4103;DHT22;2065;49.790;9.620;2022-12-18T15:57:36;1.90;52.90
4103;DHT22;2065;49.790;9.620;2022-12-18T16:00:04;2.00;52.80
4103;DHT22;2065;49.790;9.620;2022-12-18T16:02:31;2.00;52.70
4103;DHT22;2065;49.790;9.620;2022-12-18T16:04:59;2.00;52.70
4103;DHT22;2065;49.790;9.620;2022-12-18T16:07:26;1.90;52.50
4103;DHT22;2065;49.790;9.620;2022-12-18T16:09:53;1.80;52.40
4103;DHT22;2065;49.790;9.620;2022-12-18T16:12:23;1.70;52.70
4103;DHT22;2065;49.790;9.620;2022-12-18T16:14:50;1.70;52.90
4103;DHT22;2065;49.790;9.620;2022-12-18T16:17:17;1.70;53.00
4103;DHT22;2065;49.790;9.620;2022-12-18T16:19:45;1.70;52.90
4103;DHT22;2065;49.790;9.620;2022-12-18T16:22:22;1.70;53.10
4103;DHT22;2065;49.790;9.620;2022-12-18T16:24:49;1.60;53.20
4103;DHT22;2065;49.790;9.620;2022-12-18T16:27:17;1.60;53.20
4103;DHT22;2065;49.790;9.620;2022-12-18T16:29:45;1.60;53.10
4103;DHT22;2065;49.790;9.620;2022-12-18T16:32:14;1.60;53.00
4103;DHT22;2065;49.790;9.620;2022-12-18T16:34:42;1.60;53.00
4103;DHT22;2065;49.790;9.620;2022-12-18T16:37:12;1.50;53.20
4103;DHT22;2065;49.790;9.620;2022-12-18T16:39:41;1.50;53.40